sensor_id;sensor_type;location;lat;lon;timestamp;pressure;altitude;pressure_sealevel;temperature;humidity
37202;BME280;37799;52.390;6.136;2023-07-02T00:01:22;100604.25;;;16.91;100.00
37202;BME280;37799;52.390;6.136;2023-07-02T00:03:48;100592.22;;;16.89;100.00
37202;BME280;37799;52.390;6.136;2023-07-02T00:06:13;100595.84;;;16.86;100.00
37202;BME280;37799;52.390;6.136;2023-07-02T00:08:38;100586.50;;;16.82;100.00
37202;BME280;37799;52.390;6.136;2023-07-02T00:11:06;100580.75;;;16.75;100.00
37202;BME280;37799;52.390;6.136;2023-07-02T00:13:31;100575.22;;;16.64;100.00
37202;BME280;37799;52.390;6.136;2023-07-02T00:15:56;100583.34;;;16.60;100.00
37202;BME280;37799;52.390;6.136;2023-07-02T00:18:23;100581.03;;;16.53;100.00
37202;BME280;37799;52.390;6.136;2023-07-02T00:20:54;100578.94;;;16.44;100.00
37202;BME280;37799;52.390;6.136;2023-07-02T00:23:19;100584.34;;;16.41;100.00
37202;BME280;37799;52.390;6.136;2023-07-02T00:25:45;100589.72;;;16.38;100.00
37202;BME280;37799;52.390;6.136;2023-07-02T00:28:10;100583.81;;;16.35;100.00
37202;BME280;37799;52.390;6.136;2023-07-02T00:30:36;100592.41;;;16.37;100.00
37202;BME280;37799;52.390;6.136;2023-07-02T00:33:01;100591.66;;;16.35;100.00
37202;BME280;37799;52.390;6.136;2023-07-02T00:35:26;100590.06;;;16.32;100.00
37202;BME280;37799;52.390;6.136;2023-07-02T00:37:52;100575.72;;;16.39;100.00
37202;BME280;37799;52.390;6.136;2023-07-02T00:40:17;100588.75;;;16.41;100.00
37202;BME280;37799;52.390;6.136;2023-07-02T00:42:42;100580.94;;;16.39;100.00
37202;BME280;37799;52.390;6.136;2023-07-02T00:45:08;100587.19;;;16.37;100.00
37202;BME280;37799;52.390;6.136;2023-07-02T00:47:34;100581.13;;;16.36;100.00
37202;BME280;37799;52.390;6.136;2023-07-02T00:50:00;100572.34;;;16.37;100.00
37202;BME280;37799;52.390;6.136;2023-07-02T00:52:27;100573.06;;;16.41;100.00
37202;BME280;37799;52.390;6.136;2023-07-02T00:54:52;100575.91;;;16.36;100.00
37202;BME280;37799;52.390;6.136;2023-07-02T00:57:18;100575.31;;;16.31;100.00
37202;BME280;37799;52.390;6.136;2023-07-02T00:59:44;100571.88;;;16.31;100.00
37202;BME280;37799;52.390;6.136;2023-07-02T01:02:09;100580.63;;;16.30;100.00
37202;BME280;37799;52.390;6.136;2023-07-02T01:04:35;100580.75;;;16.27;100.00
37202;BME280;37799;52.390;6.136;2023-07-02T01:07:02;100583.63;;;16.22;100.00
37202;BME280;37799;52.390;6.136;2023-07-02T01:09:34;100585.31;;;16.23;100.00
37202;BME280;37799;52.390;6.136;2023-07-02T01:12:01;100583.63;;;16.22;100.00
37202;BME280;37799;52.390;6.136;2023-07-02T01:14:37;100585.66;;;16.17;100.00
37202;BME280;37799;52.390;6.136;2023-07-02T01:17:05;100586.41;;;16.19;100.00
37202;BME280;37799;52.390;6.136;2023-07-02T01:19:50;100592.22;;;16.24;100.00
37202;BME280;37799;52.390;6.136;2023-07-02T01:22:20;100588.03;;;16.21;100.00
37202;BME280;37799;52.390;6.136;2023-07-02T01:24:46;100595.84;;;16.21;100.00
37202;BME280;37799;52.390;6.136;2023-07-02T01:27:13;100601.34;;;16.17;100.00
37202;BME280;37799;52.390;6.136;2023-07-02T01:29:40;100601.66;;;16.11;100.00
37202;BME280;37799;52.390;6.136;2023-07-02T01:32:05;100598.44;;;16.06;100.00
37202;BME280;37799;52.390;6.136;2023-07-02T01:34:31;100603.88;;;16.01;100.00
37202;BME280;37799;52.390;6.136;2023-07-02T01:36:56;100610.19;;;15.97;100.00
37202;BME280;37799;52.390;6.136;2023-07-02T01:39:22;100613.22;;;15.89;100.00
37202;BME280;37799;52.390;6.136;2023-07-02T01:41:55;100606.16;;;15.91;100.00
37202;BME280;37799;52.390;6.136;2023-07-02T01:44:22;100614.28;;;15.85;100.00
37202;BME280;37799;52.390;6.136;2023-07-02T01:46:48;100617.38;;;15.76;100.00
37202;BME280;37799;52.390;6.136;2023-07-02T01:49:19;100613.31;;;15.71;100.00
37202;BME280;37799;52.390;6.136;2023-07-02T01:51:55;100609.16;;;15.67;100.00
37202;BME280;37799;52.390;6.136;2023-07-02T01:54:23;100619.06;;;15.60;100.00
37202;BME280;37799;52.390;6.136;2023-07-02T01:56:48;100621.03;;;15.55;100.00
37202;BME280;37799;52.390;6.136;2023-07-02T01:59:15;100610.19;;;15.45;100.00
37202;BME280;37799;52.390;6.136;2023-07-02T02:01:42;100610.88;;;15.31;100.00
37202;BME280;37799;52.390;6.136;2023-07-02T02:04:07;100616.09;;;15.14;100.00
37202;BME280;37799;52.390;6.136;2023-07-02T02:06:33;100618.59;;;14.98;100.00
37202;BME280;37799;52.390;6.136;2023-07-02T02:08:59;100613.38;;;14.80;100.00
37202;BME280;37799;52.390;6.136;2023-07-02T02:11:25;100607.81;;;14.68;100.00
37202;BME280;37799;52.390;6.136;2023-07-02T02:13:50;100611.00;;;14.56;100.00
37202;BME280;37799;52.390;6.136;2023-07-02T02:16:16;100617.94;;;14.37;100.00
37202;BME280;37799;52.390;6.136;2023-07-02T02:18:41;100626.28;;;14.25;100.00
37202;BME280;37799;52.390;6.136;2023-07-02T02:21:06;100628.66;;;14.10;100.00
37202;BME280;37799;52.390;6.136;2023-07-02T02:23:32;100621.44;;;13.97;100.00
37202;BME280;37799;52.390;6.136;2023-07-02T02:25:57;100622.69;;;13.88;100.00
37202;BME280;37799;52.390;6.136;2023-07-02T02:28:23;100621.13;;;13.84;100.00
37202;BME280;37799;52.390;6.136;2023-07-02T02:30:48;100622.13;;;13.81;100.00
37202;BME280;37799;52.390;6.136;2023-07-02T02:33:13;100617.63;;;13.85;100.00
37202;BME280;37799;52.390;6.136;2023-07-02T02:35:39;100622.28;;;13.77;100.00
37202;BME280;37799;52.390;6.136;2023-07-02T02:38:04;100622.28;;;13.77;100.00
37202;BME280;37799;52.390;6.136;2023-07-02T02:40:30;100624.56;;;13.64;100.00
37202;BME280;37799;52.390;6.136;2023-07-02T02:42:55;100622.22;;;13.58;100.00
37202;BME280;37799;52.390;6.136;2023-07-02T02:45:20;100622.22;;;13.58;100.00
37202;BME280;37799;52.390;6.136;2023-07-02T02:47:46;100637.91;;;13.56;100.00
37202;BME280;37799;52.390;6.136;2023-07-02T02:50:12;100634.41;;;13.57;100.00
37202;BME280;37799;52.390;6.136;2023-07-02T02:52:38;100637.78;;;13.60;100.00
37202;BME280;37799;52.390;6.136;2023-07-02T02:55:05;100634.97;;;13.64;100.00
37202;BME280;37799;52.390;6.136;2023-07-02T02:57:31;100634.13;;;13.64;100.00
37202;BME280;37799;52.390;6.136;2023-07-02T02:59:57;100635.09;;;13.61;100.00
37202;BME280;37799;52.390;6.136;2023-07-02T03:02:22;100624.97;;;13.75;100.00
37202;BME280;37799;52.390;6.136;2023-07-02T03:04:47;100633.16;;;13.66;100.00
37202;BME280;37799;52.390;6.136;2023-07-02T03:07:14;100631.16;;;13.73;100.00
37202;BME280;37799;52.390;6.136;2023-07-02T03:09:40;100642.47;;;13.72;100.00
37202;BME280;37799;52.390;6.136;2023-07-02T03:12:05;100640.56;;;13.75;100.00
37202;BME280;37799;52.390;6.136;2023-07-02T03:14:31;100644.22;;;13.71;100.00
37202;BME280;37799;52.390;6.136;2023-07-02T03:16:56;100653.09;;;13.67;100.00
37202;BME280;37799;52.390;6.136;2023-07-02T03:19:22;100660.00;;;13.67;100.00
37202;BME280;37799;52.390;6.136;2023-07-02T03:21:47;100656.41;;;13.71;100.00
37202;BME280;37799;52.390;6.136;2023-07-02T03:24:13;100654.03;;;13.65;100.00
37202;BME280;37799;52.390;6.136;2023-07-02T03:26:42;100647.47;;;13.56;100.00
37202;BME280;37799;52.390;6.136;2023-07-02T03:29:08;100652.03;;;13.71;100.00
37202;BME280;37799;52.390;6.136;2023-07-02T03:31:34;100656.75;;;13.62;100.00
37202;BME280;37799;52.390;6.136;2023-07-02T03:34:06;100655.22;;;13.57;100.00
37202;BME280;37799;52.390;6.136;2023-07-02T03:36:31;100656.75;;;13.62;100.00
37202;BME280;37799;52.390;6.136;2023-07-02T03:38:57;100654.94;;;13.64;100.00
37202;BME280;37799;52.390;6.136;2023-07-02T03:41:22;100651.69;;;13.58;100.00
37202;BME280;37799;52.390;6.136;2023-07-02T03:43:48;100657.13;;;13.52;100.00
37202;BME280;37799;52.390;6.136;2023-07-02T03:46:13;100659.56;;;13.57;100.00
37202;BME280;37799;52.390;6.136;2023-07-02T03:48:39;100664.03;;;13.53;100.00
37202;BME280;37799;52.390;6.136;2023-07-02T03:51:04;100663.19;;;13.53;100.00
37202;BME280;37799;52.390;6.136;2023-07-02T03:53:29;100669.28;;;13.52;100.00
37202;BME280;37799;52.390;6.136;2023-07-02T03:55:55;100669.00;;;13.60;100.00
37202;BME280;37799;52.390;6.136;2023-07-02T03:58:20;100672.50;;;13.58;100.00
37202;BME280;37799;52.390;6.136;2023-07-02T04:00:46;100679.41;;;13.60;100.00
37202;BME280;37799;52.390;6.136;2023-07-02T04:03:15;100681.38;;;13.75;100.00
37202;BME280;37799;52.390;6.136;2023-07-02T04:05:41;100681.56;;;13.70;100.00
37202;BME280;37799;52.390;6.136;2023-07-02T04:08:06;100681.69;;;13.67;100.00
37202;BME280;37799;52.390;6.136;2023-07-02T04:10:32;100693.84;;;13.67;100.00
37202;BME280;37799;52.390;6.136;2023-07-02T04:12:57;100689.38;;;13.70;100.00
37202;BME280;37799;52.390;6.136;2023-07-02T04:15:22;100686.78;;;13.70;100.00
37202;BME280;37799;52.390;6.136;2023-07-02T04:17:49;100689.19;;;13.75;100.00
37202;BME280;37799;52.390;6.136;2023-07-02T04:20:15;100680.81;;;13.67;100.00
37202;BME280;37799;52.390;6.136;2023-07-02T04:22:40;100686.03;;;13.67;100.00
37202;BME280;37799;52.390;6.136;2023-07-02T04:25:06;100687.63;;;13.71;100.00
37202;BME280;37799;52.390;6.136;2023-07-02T04:27:32;100687.56;;;13.72;100.00
37202;BME280;37799;52.390;6.136;2023-07-02T04:29:57;100690.09;;;13.74;100.00
37202;BME280;37799;52.390;6.136;2023-07-02T04:32:22;100693.41;;;13.77;100.00
37202;BME280;37799;52.390;6.136;2023-07-02T04:34:48;100697.63;;;13.80;100.00
37202;BME280;37799;52.390;6.136;2023-07-02T04:37:13;100695.94;;;13.79;100.00
37202;BME280;37799;52.390;6.136;2023-07-02T04:39:40;100701.41;;;13.73;100.00
37202;BME280;37799;52.390;6.136;2023-07-02T04:42:06;100706.25;;;13.82;100.00
37202;BME280;37799;52.390;6.136;2023-07-02T04:44:31;100706.13;;;13.85;100.00
37202;BME280;37799;52.390;6.136;2023-07-02T04:47:01;100706.75;;;13.90;100.00
37202;BME280;37799;52.390;6.136;2023-07-02T04:49:26;100708.06;;;14.00;100.00
37202;BME280;37799;52.390;6.136;2023-07-02T04:51:53;100705.31;;;14.03;100.00
37202;BME280;37799;52.390;6.136;2023-07-02T04:54:22;100701.56;;;14.10;100.00
37202;BME280;37799;52.390;6.136;2023-07-02T04:56:48;100714.22;;;14.20;100.00
37202;BME280;37799;52.390;6.136;2023-07-02T04:59:14;100717.69;;;14.18;100.00
37202;BME280;37799;52.390;6.136;2023-07-02T05:01:40;100717.84;;;14.36;100.00
37202;BME280;37799;52.390;6.136;2023-07-02T05:04:09;100714.31;;;14.37;100.00
37202;BME280;37799;52.390;6.136;2023-07-02T05:06:34;100729.66;;;14.43;100.00
37202;BME280;37799;52.390;6.136;2023-07-02T05:09:00;100724.38;;;14.46;100.00
37202;BME280;37799;52.390;6.136;2023-07-02T05:11:25;100729.81;;;14.60;100.00
37202;BME280;37799;52.390;6.136;2023-07-02T05:13:51;100711.59;;;14.60;100.00
37202;BME280;37799;52.390;6.136;2023-07-02T05:16:16;100715.25;;;14.75;100.00
37202;BME280;37799;52.390;6.136;2023-07-02T05:18:41;100723.84;;;14.96;100.00
37202;BME280;37799;52.390;6.136;2023-07-02T05:21:07;100725.13;;;14.87;100.00
37202;BME280;37799;52.390;6.136;2023-07-02T05:23:32;100727.38;;;14.95;100.00
37202;BME280;37799;52.390;6.136;2023-07-02T05:25:58;100724.97;;;15.09;100.00
37202;BME280;37799;52.390;6.136;2023-07-02T05:28:24;100731.19;;;15.25;100.00
37202;BME280;37799;52.390;6.136;2023-07-02T05:30:50;100734.19;;;15.35;100.00
37202;BME280;37799;52.390;6.136;2023-07-02T05:33:15;100730.16;;;15.47;100.00
37202;BME280;37799;52.390;6.136;2023-07-02T05:35:40;100734.91;;;15.75;100.00
37202;BME280;37799;52.390;6.136;2023-07-02T05:38:06;100739.03;;;16.15;100.00
37202;BME280;37799;52.390;6.136;2023-07-02T05:40:31;100740.44;;;16.88;100.00
37202;BME280;37799;52.390;6.136;2023-07-02T05:42:57;100739.38;;;17.71;100.00
37202;BME280;37799;52.390;6.136;2023-07-02T05:45:22;100739.72;;;18.39;100.00
37202;BME280;37799;52.390;6.136;2023-07-02T05:47:49;100742.06;;;19.01;100.00
37202;BME280;37799;52.390;6.136;2023-07-02T05:50:14;100746.91;;;19.35;100.00
37202;BME280;37799;52.390;6.136;2023-07-02T05:52:39;100751.50;;;19.73;100.00
37202;BME280;37799;52.390;6.136;2023-07-02T05:55:07;100759.75;;;19.94;100.00
37202;BME280;37799;52.390;6.136;2023-07-02T05:57:35;100763.00;;;20.63;100.00
37202;BME280;37799;52.390;6.136;2023-07-02T06:00:00;100765.03;;;21.08;100.00
37202;BME280;37799;52.390;6.136;2023-07-02T06:02:26;100766.69;;;21.22;100.00
37202;BME280;37799;52.390;6.136;2023-07-02T06:04:51;100772.25;;;21.43;100.00
37202;BME280;37799;52.390;6.136;2023-07-02T06:07:16;100767.16;;;21.76;100.00
37202;BME280;37799;52.390;6.136;2023-07-02T06:09:42;100776.72;;;22.36;100.00
37202;BME280;37799;52.390;6.136;2023-07-02T06:12:07;100778.22;;;22.74;100.00
37202;BME280;37799;52.390;6.136;2023-07-02T06:14:33;100775.13;;;23.03;96.72
37202;BME280;37799;52.390;6.136;2023-07-02T06:16:58;100785.69;;;22.80;98.19
37202;BME280;37799;52.390;6.136;2023-07-02T06:19:24;100790.50;;;22.86;97.66
37202;BME280;37799;52.390;6.136;2023-07-02T06:21:50;100784.44;;;22.62;98.37
37202;BME280;37799;52.390;6.136;2023-07-02T06:24:15;100794.56;;;22.90;97.26
37202;BME280;37799;52.390;6.136;2023-07-02T06:26:40;100789.00;;;22.60;96.73
37202;BME280;37799;52.390;6.136;2023-07-02T06:29:06;100793.16;;;22.98;96.47
37202;BME280;37799;52.390;6.136;2023-07-02T06:31:31;100798.56;;;23.07;95.22
37202;BME280;37799;52.390;6.136;2023-07-02T06:33:56;100799.84;;;22.90;98.84
37202;BME280;37799;52.390;6.136;2023-07-02T06:36:22;100786.06;;;22.87;96.15
37202;BME280;37799;52.390;6.136;2023-07-02T06:38:47;100788.81;;;23.08;94.19
37202;BME280;37799;52.390;6.136;2023-07-02T06:41:12;100787.09;;;23.40;89.35
37202;BME280;37799;52.390;6.136;2023-07-02T06:43:38;100798.38;;;22.75;94.61
37202;BME280;37799;52.390;6.136;2023-07-02T06:46:03;100798.84;;;21.64;96.46
37202;BME280;37799;52.390;6.136;2023-07-02T06:48:29;100802.59;;;20.74;100.00
37202;BME280;37799;52.390;6.136;2023-07-02T06:50:55;100807.94;;;20.47;100.00
37202;BME280;37799;52.390;6.136;2023-07-02T06:53:21;100805.50;;;21.07;100.00
37202;BME280;37799;52.390;6.136;2023-07-02T06:55:46;100802.97;;;21.55;100.00
37202;BME280;37799;52.390;6.136;2023-07-02T06:58:11;100803.75;;;22.40;96.98
37202;BME280;37799;52.390;6.136;2023-07-02T07:00:37;100817.50;;;22.90;91.87
37202;BME280;37799;52.390;6.136;2023-07-02T07:03:03;100815.16;;;22.63;96.13
37202;BME280;37799;52.390;6.136;2023-07-02T07:05:32;100824.53;;;22.78;95.54
37202;BME280;37799;52.390;6.136;2023-07-02T07:07:59;100825.41;;;22.90;94.48
37202;BME280;37799;52.390;6.136;2023-07-02T07:10:26;100823.38;;;22.36;93.73
37202;BME280;37799;52.390;6.136;2023-07-02T07:12:51;100831.19;;;21.29;100.00
37202;BME280;37799;52.390;6.136;2023-07-02T07:15:16;100823.63;;;20.99;100.00
37202;BME280;37799;52.390;6.136;2023-07-02T07:17:42;100826.56;;;20.69;100.00
37202;BME280;37799;52.390;6.136;2023-07-02T07:20:07;100827.22;;;20.60;100.00
37202;BME280;37799;52.390;6.136;2023-07-02T07:22:34;100835.63;;;21.03;100.00
37202;BME280;37799;52.390;6.136;2023-07-02T07:25:00;100832.75;;;21.68;100.00
37202;BME280;37799;52.390;6.136;2023-07-02T07:27:25;100838.53;;;21.97;95.42
37202;BME280;37799;52.390;6.136;2023-07-02T07:29:50;100847.75;;;21.68;97.91
37202;BME280;37799;52.390;6.136;2023-07-02T07:32:20;100852.59;;;21.12;100.00
37202;BME280;37799;52.390;6.136;2023-07-02T07:34:45;100852.47;;;21.01;100.00
37202;BME280;37799;52.390;6.136;2023-07-02T07:37:11;100859.41;;;21.40;100.00
37202;BME280;37799;52.390;6.136;2023-07-02T07:39:36;100860.25;;;21.02;97.90
37202;BME280;37799;52.390;6.136;2023-07-02T07:42:01;100856.66;;;20.65;100.00
37202;BME280;37799;52.390;6.136;2023-07-02T07:44:27;100856.41;;;20.43;100.00
37202;BME280;37799;52.390;6.136;2023-07-02T07:46:54;100860.69;;;20.83;100.00
37202;BME280;37799;52.390;6.136;2023-07-02T07:49:21;100863.38;;;21.58;100.00
37202;BME280;37799;52.390;6.136;2023-07-02T07:51:46;100855.44;;;22.43;89.02
37202;BME280;37799;52.390;6.136;2023-07-02T07:54:11;100863.94;;;23.04;85.12
37202;BME280;37799;52.390;6.136;2023-07-02T07:56:37;100868.50;;;23.69;82.28
37202;BME280;37799;52.390;6.136;2023-07-02T07:59:02;100863.63;;;24.39;75.33
37202;BME280;37799;52.390;6.136;2023-07-02T08:01:27;100870.06;;;24.88;63.47
37202;BME280;37799;52.390;6.136;2023-07-02T08:03:53;100876.25;;;25.19;58.89
37202;BME280;37799;52.390;6.136;2023-07-02T08:06:18;100878.63;;;25.22;59.52
37202;BME280;37799;52.390;6.136;2023-07-02T08:08:44;100871.56;;;24.28;54.97
37202;BME280;37799;52.390;6.136;2023-07-02T08:11:09;100866.03;;;23.99;57.29
37202;BME280;37799;52.390;6.136;2023-07-02T08:13:35;100863.75;;;23.95;56.27
37202;BME280;37799;52.390;6.136;2023-07-02T08:16:00;100870.28;;;24.23;59.17
37202;BME280;37799;52.390;6.136;2023-07-02T08:18:26;100872.50;;;24.06;58.13
37202;BME280;37799;52.390;6.136;2023-07-02T08:20:51;100878.75;;;23.62;58.58
37202;BME280;37799;52.390;6.136;2023-07-02T08:23:16;100887.03;;;23.35;58.18
37202;BME280;37799;52.390;6.136;2023-07-02T08:25:42;100878.38;;;22.53;59.45
37202;BME280;37799;52.390;6.136;2023-07-02T08:28:07;100869.91;;;22.37;55.77
37202;BME280;37799;52.390;6.136;2023-07-02T08:30:33;100874.50;;;21.98;56.04
37202;BME280;37799;52.390;6.136;2023-07-02T08:32:58;100878.50;;;22.63;56.47
37202;BME280;37799;52.390;6.136;2023-07-02T08:35:23;100886.00;;;22.80;54.03
37202;BME280;37799;52.390;6.136;2023-07-02T08:37:49;100887.41;;;22.73;55.85
37202;BME280;37799;52.390;6.136;2023-07-02T08:40:20;100886.94;;;22.33;57.60
37202;BME280;37799;52.390;6.136;2023-07-02T08:42:47;100885.69;;;22.61;59.16
37202;BME280;37799;52.390;6.136;2023-07-02T08:45:15;100889.69;;;23.46;60.21
37202;BME280;37799;52.390;6.136;2023-07-02T08:47:41;100893.25;;;23.68;56.65
37202;BME280;37799;52.390;6.136;2023-07-02T08:50:07;100895.44;;;23.18;56.84
37202;BME280;37799;52.390;6.136;2023-07-02T08:52:32;100900.59;;;23.08;57.51
37202;BME280;37799;52.390;6.136;2023-07-02T08:54:58;100913.34;;;23.37;56.11
37202;BME280;37799;52.390;6.136;2023-07-02T08:57:23;100909.13;;;23.45;56.35
37202;BME280;37799;52.390;6.136;2023-07-02T08:59:48;100910.31;;;23.86;53.34
37202;BME280;37799;52.390;6.136;2023-07-02T09:02:16;100910.69;;;24.25;51.52
37202;BME280;37799;52.390;6.136;2023-07-02T09:04:42;100913.44;;;24.34;48.02
37202;BME280;37799;52.390;6.136;2023-07-02T09:07:08;100911.78;;;24.54;49.00
37202;BME280;37799;52.390;6.136;2023-07-02T09:09:44;100915.94;;;24.89;47.73
37202;BME280;37799;52.390;6.136;2023-07-02T09:12:28;100922.53;;;25.15;46.14
37202;BME280;37799;52.390;6.136;2023-07-02T09:14:57;100926.72;;;25.18;47.56
37202;BME280;37799;52.390;6.136;2023-07-02T09:17:28;100918.09;;;25.96;45.54
37202;BME280;37799;52.390;6.136;2023-07-02T09:19:54;100930.78;;;25.83;41.69
37202;BME280;37799;52.390;6.136;2023-07-02T09:22:20;100924.69;;;26.21;41.78
37202;BME280;37799;52.390;6.136;2023-07-02T09:24:57;100929.97;;;25.92;38.74
37202;BME280;37799;52.390;6.136;2023-07-02T09:27:52;100935.63;;;26.37;41.13
37202;BME280;37799;52.390;6.136;2023-07-02T09:30:18;100914.94;;;26.70;38.74
37202;BME280;37799;52.390;6.136;2023-07-02T09:32:44;100921.09;;;26.61;42.74
37202;BME280;37799;52.390;6.136;2023-07-02T09:35:10;100919.06;;;25.95;40.93
37202;BME280;37799;52.390;6.136;2023-07-02T09:37:36;100926.91;;;26.16;38.86
37202;BME280;37799;52.390;6.136;2023-07-02T09:40:02;100921.88;;;26.13;39.09
37202;BME280;37799;52.390;6.136;2023-07-02T09:42:30;100918.91;;;25.87;38.03
37202;BME280;37799;52.390;6.136;2023-07-02T09:44:58;100922.78;;;24.91;40.54
37202;BME280;37799;52.390;6.136;2023-07-02T09:47:24;100916.72;;;24.16;43.14
37202;BME280;37799;52.390;6.136;2023-07-02T09:49:55;100920.19;;;23.73;43.97
37202;BME280;37799;52.390;6.136;2023-07-02T09:52:23;100914.41;;;23.23;45.49
37202;BME280;37799;52.390;6.136;2023-07-02T09:54:48;100921.50;;;23.22;48.49
37202;BME280;37799;52.390;6.136;2023-07-02T09:57:13;100917.88;;;22.77;47.78
37202;BME280;37799;52.390;6.136;2023-07-02T09:59:40;100918.91;;;22.87;48.25
37202;BME280;37799;52.390;6.136;2023-07-02T10:02:05;100925.69;;;23.92;45.70
37202;BME280;37799;52.390;6.136;2023-07-02T10:04:46;100926.19;;;24.29;44.15
37202;BME280;37799;52.390;6.136;2023-07-02T10:07:12;100930.13;;;23.92;44.58
37202;BME280;37799;52.390;6.136;2023-07-02T10:09:48;100925.41;;;23.95;43.53
37202;BME280;37799;52.390;6.136;2023-07-02T10:12:28;100934.19;;;24.50;43.86
37202;BME280;37799;52.390;6.136;2023-07-02T10:14:56;100934.97;;;24.83;44.66
37202;BME280;37799;52.390;6.136;2023-07-02T10:17:32;100937.56;;;24.94;44.86
37202;BME280;37799;52.390;6.136;2023-07-02T10:20:07;100938.34;;;24.21;46.09
37202;BME280;37799;52.390;6.136;2023-07-02T10:22:46;100938.09;;;23.69;46.57
37202;BME280;37799;52.390;6.136;2023-07-02T10:25:24;100937.47;;;23.54;47.91
37202;BME280;37799;52.390;6.136;2023-07-02T10:27:49;100939.16;;;23.55;48.79
37202;BME280;37799;52.390;6.136;2023-07-02T10:30:15;100936.41;;;23.46;49.57
37202;BME280;37799;52.390;6.136;2023-07-02T10:32:40;100930.16;;;23.80;46.49
37202;BME280;37799;52.390;6.136;2023-07-02T10:35:16;100935.44;;;23.80;46.81
37202;BME280;37799;52.390;6.136;2023-07-02T10:37:42;100941.31;;;23.39;46.93
37202;BME280;37799;52.390;6.136;2023-07-02T10:40:08;100939.09;;;23.00;47.45
37202;BME280;37799;52.390;6.136;2023-07-02T10:42:45;100940.94;;;22.75;49.22
37202;BME280;37799;52.390;6.136;2023-07-02T10:45:10;100943.75;;;22.85;49.03
37202;BME280;37799;52.390;6.136;2023-07-02T10:47:39;100952.94;;;23.25;47.08
37202;BME280;37799;52.390;6.136;2023-07-02T10:50:19;100956.03;;;24.31;44.10
37202;BME280;37799;52.390;6.136;2023-07-02T10:52:45;100948.56;;;24.25;43.57
37202;BME280;37799;52.390;6.136;2023-07-02T10:55:16;100954.28;;;23.98;43.76
37202;BME280;37799;52.390;6.136;2023-07-02T10:57:42;100956.19;;;23.29;44.32
37202;BME280;37799;52.390;6.136;2023-07-02T11:00:08;100952.59;;;23.30;44.92
37202;BME280;37799;52.390;6.136;2023-07-02T11:02:35;100958.16;;;23.83;45.73
37202;BME280;37799;52.390;6.136;2023-07-02T11:05:00;100950.25;;;24.26;44.48
37202;BME280;37799;52.390;6.136;2023-07-02T11:07:25;100955.44;;;24.60;42.91
37202;BME280;37799;52.390;6.136;2023-07-02T11:09:51;100966.44;;;24.44;42.74
37202;BME280;37799;52.390;6.136;2023-07-02T11:12:17;100965.00;;;23.97;44.59
37202;BME280;37799;52.390;6.136;2023-07-02T11:14:42;100965.81;;;23.19;45.14
37202;BME280;37799;52.390;6.136;2023-07-02T11:17:07;100961.69;;;22.92;46.80
37202;BME280;37799;52.390;6.136;2023-07-02T11:19:34;100968.50;;;23.86;48.17
37202;BME280;37799;52.390;6.136;2023-07-02T11:22:00;100963.97;;;24.31;45.90
37202;BME280;37799;52.390;6.136;2023-07-02T11:24:44;100969.81;;;24.46;45.73
37202;BME280;37799;52.390;6.136;2023-07-02T11:27:09;100975.41;;;24.64;44.22
37202;BME280;37799;52.390;6.136;2023-07-02T11:29:45;100972.34;;;25.21;43.28
37202;BME280;37799;52.390;6.136;2023-07-02T11:32:11;100984.63;;;25.22;40.50
37202;BME280;37799;52.390;6.136;2023-07-02T11:34:38;100984.59;;;24.81;41.73
37202;BME280;37799;52.390;6.136;2023-07-02T11:37:04;100990.84;;;24.48;45.37
37202;BME280;37799;52.390;6.136;2023-07-02T11:39:30;100994.16;;;24.29;44.39
37202;BME280;37799;52.390;6.136;2023-07-02T11:41:56;100992.72;;;24.25;43.91
37202;BME280;37799;52.390;6.136;2023-07-02T11:44:21;100988.47;;;24.77;42.08
37202;BME280;37799;52.390;6.136;2023-07-02T11:46:47;100975.97;;;25.20;41.73
37202;BME280;37799;52.390;6.136;2023-07-02T11:49:13;100983.00;;;24.89;41.00
37202;BME280;37799;52.390;6.136;2023-07-02T11:51:40;100987.38;;;23.59;42.48
37202;BME280;37799;52.390;6.136;2023-07-02T11:54:06;100987.91;;;23.18;42.37
37202;BME280;37799;52.390;6.136;2023-07-02T11:56:32;100995.16;;;23.49;43.72
37202;BME280;37799;52.390;6.136;2023-07-02T11:58:58;100993.56;;;24.14;45.11
37202;BME280;37799;52.390;6.136;2023-07-02T12:01:23;100988.16;;;24.59;40.67
37202;BME280;37799;52.390;6.136;2023-07-02T12:03:50;100991.13;;;24.77;42.87
37202;BME280;37799;52.390;6.136;2023-07-02T12:06:15;100993.16;;;24.73;41.19
37202;BME280;37799;52.390;6.136;2023-07-02T12:08:40;100996.47;;;24.65;42.14
37202;BME280;37799;52.390;6.136;2023-07-02T12:11:07;100998.59;;;24.71;42.23
37202;BME280;37799;52.390;6.136;2023-07-02T12:13:34;100999.13;;;24.86;40.15
37202;BME280;37799;52.390;6.136;2023-07-02T12:15:59;100999.66;;;24.80;39.28
37202;BME280;37799;52.390;6.136;2023-07-02T12:18:25;100998.94;;;24.99;39.13
37202;BME280;37799;52.390;6.136;2023-07-02T12:20:50;101006.19;;;25.39;38.88
37202;BME280;37799;52.390;6.136;2023-07-02T12:23:15;100999.72;;;25.52;37.06
37202;BME280;37799;52.390;6.136;2023-07-02T12:25:41;101000.78;;;25.19;38.92
37202;BME280;37799;52.390;6.136;2023-07-02T12:28:06;101013.94;;;24.89;39.37
37202;BME280;37799;52.390;6.136;2023-07-02T12:30:32;101014.59;;;24.49;38.83
37202;BME280;37799;52.390;6.136;2023-07-02T12:32:58;101017.25;;;24.27;38.58
37202;BME280;37799;52.390;6.136;2023-07-02T12:35:23;101008.75;;;23.90;40.28
37202;BME280;37799;52.390;6.136;2023-07-02T12:37:52;101013.13;;;24.45;43.31
37202;BME280;37799;52.390;6.136;2023-07-02T12:40:19;101018.50;;;25.40;39.50
37202;BME280;37799;52.390;6.136;2023-07-02T12:42:46;101017.16;;;26.06;36.42